createdAt,value
2018-05-07T00:00:33.051Z,0.00
2018-05-07T00:01:32.980Z,0.00
2018-05-07T00:02:32.905Z,0.00
2018-05-07T00:03:32.828Z,0.00
2018-05-07T00:04:32.746Z,0.00
2018-05-07T00:05:32.674Z,0.00
2018-05-07T00:06:32.591Z,0.00
2018-05-07T00:07:33.524Z,0.00
2018-05-07T00:08:32.441Z,0.00
2018-05-07T00:09:32.435Z,0.00
2018-05-07T00:10:32.283Z,0.00
2018-05-07T00:11:32.302Z,0.00
2018-05-07T00:12:32.135Z,0.00
2018-05-07T00:13:32.075Z,0.00
2018-05-07T00:14:31.982Z,0.00
2018-05-07T00:15:31.914Z,0.00
2018-05-07T00:16:31.832Z,0.00
2018-05-07T00:17:31.761Z,0.00
2018-05-07T00:18:31.680Z,0.00
2018-05-07T00:19:31.611Z,0.00
2018-05-07T00:20:31.536Z,0.00
2018-05-07T00:21:31.455Z,0.00
2018-05-07T00:22:31.375Z,0.00
2018-05-07T00:23:31.310Z,0.00
2018-05-07T00:24:31.222Z,0.00
2018-05-07T00:25:31.152Z,0.00
2018-05-07T00:26:31.089Z,0.00
2018-05-07T00:27:30.998Z,0.00
2018-05-07T00:28:30.917Z,0.00
2018-05-07T00:29:30.847Z,0.00
2018-05-07T00:30:30.763Z,0.00
2018-05-07T00:31:30.694Z,0.00
2018-05-07T00:32:30.610Z,0.00
2018-05-07T00:33:30.541Z,0.00
2018-05-07T00:34:30.460Z,0.00
2018-05-07T00:35:30.386Z,0.00
2018-05-07T00:36:30.307Z,0.00
2018-05-07T00:37:30.234Z,0.00
2018-05-07T00:38:30.152Z,0.00
2018-05-07T00:39:30.081Z,0.00
2018-05-07T00:40:30.001Z,0.00
2018-05-07T00:41:29.932Z,0.00
2018-05-07T00:42:29.843Z,0.00
2018-05-07T00:43:29.782Z,0.00
2018-05-07T00:44:29.698Z,0.00
2018-05-07T00:45:29.623Z,0.00
2018-05-07T00:46:29.541Z,0.00
2018-05-07T00:47:29.476Z,0.00
2018-05-07T00:48:29.392Z,0.00
2018-05-07T00:49:29.332Z,0.00
2018-05-07T00:50:29.319Z,0.00
2018-05-07T00:51:29.166Z,0.00
2018-05-07T00:52:29.085Z,0.00
2018-05-07T00:53:29.013Z,0.00
2018-05-07T00:54:28.931Z,0.00
2018-05-07T00:55:28.861Z,0.00
2018-05-07T00:56:28.778Z,0.00
2018-05-07T00:57:28.709Z,0.00
2018-05-07T00:58:28.626Z,0.00
2018-05-07T00:59:28.557Z,0.00
2018-05-07T01:00:28.476Z,0.00
2018-05-07T01:01:28.399Z,0.00
2018-05-07T01:02:28.319Z,0.00
2018-05-07T01:03:28.251Z,0.00
2018-05-07T01:04:28.168Z,0.00
2018-05-07T01:05:28.098Z,0.00
2018-05-07T01:06:28.012Z,0.00
2018-05-07T01:07:27.944Z,0.00
2018-05-07T01:08:27.863Z,0.00
2018-05-07T01:09:27.788Z,0.00
2018-05-07T01:10:27.705Z,0.00
2018-05-07T01:11:27.640Z,0.00
2018-05-07T01:12:27.552Z,0.00
2018-05-07T01:13:27.491Z,0.00
2018-05-07T01:14:27.398Z,0.00
2018-05-07T01:15:27.338Z,0.00
2018-05-07T01:16:27.252Z,0.00
2018-05-07T01:17:27.173Z,0.00
2018-05-07T01:18:27.092Z,0.00
2018-05-07T01:19:27.030Z,0.00
2018-05-07T01:20:26.943Z,0.00
2018-05-07T01:21:26.873Z,0.00
2018-05-07T01:22:26.786Z,0.00
2018-05-07T01:23:26.725Z,0.00
2018-05-07T01:24:26.640Z,0.00
2018-05-07T01:25:26.563Z,0.00
2018-05-07T01:26:26.483Z,0.00
2018-05-07T01:27:26.413Z,0.00
2018-05-07T01:28:26.327Z,0.00
2018-05-07T01:29:26.261Z,0.00
2018-05-07T01:30:26.177Z,0.00
2018-05-07T01:31:26.102Z,0.00
2018-05-07T01:32:26.020Z,0.00
2018-05-07T01:33:25.952Z,0.00
2018-05-07T01:34:25.868Z,0.00
2018-05-07T01:35:25.796Z,0.00
2018-05-07T01:36:25.710Z,0.00
2018-05-07T01:37:25.642Z,0.00
2018-05-07T01:38:25.558Z,0.00
2018-05-07T01:39:25.490Z,0.00
2018-05-07T01:40:25.412Z,0.00
2018-05-07T01:41:25.337Z,0.00
2018-05-07T01:42:25.251Z,0.00
2018-05-07T01:43:25.180Z,0.00
2018-05-07T01:44:25.098Z,0.00
2018-05-07T01:45:25.039Z,0.00
2018-05-07T01:46:24.946Z,0.00
2018-05-07T01:47:24.875Z,0.00
2018-05-07T01:48:24.792Z,0.00
2018-05-07T01:49:24.718Z,0.00
2018-05-07T01:50:24.637Z,0.00
2018-05-07T01:51:24.566Z,0.00
2018-05-07T01:52:24.480Z,0.00
2018-05-07T01:53:24.426Z,0.00
2018-05-07T01:54:24.329Z,0.00
2018-05-07T01:55:24.258Z,0.00
2018-05-07T01:56:24.179Z,0.00
2018-05-07T01:57:24.105Z,0.00
2018-05-07T01:58:24.025Z,0.00
2018-05-07T01:59:23.957Z,0.00
2018-05-07T02:00:23.870Z,0.00
2018-05-07T02:01:23.804Z,0.00
2018-05-07T02:02:23.716Z,0.00
2018-05-07T02:03:23.649Z,0.00
2018-05-07T02:04:23.563Z,0.00
2018-05-07T02:05:23.489Z,0.00
2018-05-07T02:06:23.405Z,0.00
2018-05-07T02:07:23.342Z,0.00
2018-05-07T02:08:23.251Z,0.00
2018-05-07T02:09:23.185Z,0.00
2018-05-07T02:10:23.097Z,0.00
2018-05-07T02:11:23.026Z,0.00
2018-05-07T02:12:22.944Z,0.00
2018-05-07T02:13:22.875Z,0.00
2018-05-07T02:14:22.787Z,0.00
2018-05-07T02:15:22.725Z,0.00
2018-05-07T02:16:22.634Z,0.00
2018-05-07T02:17:22.570Z,0.00
2018-05-07T02:18:22.479Z,0.00
2018-05-07T02:19:22.410Z,0.00
2018-05-07T02:20:22.327Z,0.00
2018-05-07T02:21:22.256Z,0.00
2018-05-07T02:22:22.173Z,0.00
2018-05-07T02:23:22.106Z,0.00
2018-05-07T02:24:22.018Z,0.00
2018-05-07T02:25:21.954Z,0.00
2018-05-07T02:26:21.862Z,0.00
2018-05-07T02:27:21.790Z,0.00
2018-05-07T02:28:21.709Z,0.00
2018-05-07T02:29:21.636Z,0.00
2018-05-07T02:30:21.556Z,0.00
2018-05-07T02:31:21.522Z,0.00
2018-05-07T02:32:21.406Z,0.00
2018-05-07T02:33:21.332Z,0.00
2018-05-07T02:34:21.248Z,0.00
2018-05-07T02:35:21.181Z,0.00
2018-05-07T02:36:21.090Z,0.00
2018-05-07T02:37:21.024Z,0.00
2018-05-07T02:38:20.937Z,0.00
2018-05-07T02:39:20.870Z,0.00
2018-05-07T02:40:20.785Z,0.00
2018-05-07T02:41:20.712Z,0.00
2018-05-07T02:42:20.625Z,0.00
2018-05-07T02:43:20.561Z,0.00
2018-05-07T02:44:20.475Z,0.00
2018-05-07T02:45:20.399Z,0.00
2018-05-07T02:46:20.317Z,0.00
2018-05-07T02:47:21.243Z,0.00
2018-05-07T02:48:20.174Z,0.00
2018-05-07T02:49:20.102Z,0.00
2018-05-07T02:50:20.009Z,0.00
2018-05-07T02:51:19.937Z,0.00
2018-05-07T02:52:19.853Z,0.00
2018-05-07T02:53:19.785Z,0.00
2018-05-07T02:54:19.697Z,0.00
2018-05-07T02:55:19.628Z,0.00
2018-05-07T02:56:19.546Z,0.00
2018-05-07T02:57:19.470Z,0.00
2018-05-07T02:58:19.393Z,0.00
2018-05-07T02:59:19.322Z,0.00
2018-05-07T03:00:19.238Z,0.00
2018-05-07T03:01:19.166Z,0.00
2018-05-07T03:02:19.077Z,0.00
2018-05-07T03:03:19.090Z,0.00
2018-05-07T03:04:18.926Z,0.00
2018-05-07T03:05:18.853Z,0.00
2018-05-07T03:06:18.773Z,0.00
2018-05-07T03:07:18.703Z,0.00
2018-05-07T03:08:18.616Z,0.00
2018-05-07T03:09:18.545Z,0.00
2018-05-07T03:10:18.461Z,0.00
2018-05-07T03:11:18.389Z,0.00
2018-05-07T03:12:18.302Z,0.00
2018-05-07T03:13:18.243Z,0.00
2018-05-07T03:14:18.151Z,0.00
2018-05-07T03:15:18.080Z,0.00
2018-05-07T03:16:17.993Z,0.00
2018-05-07T03:17:17.925Z,0.00
2018-05-07T03:18:17.840Z,0.00
2018-05-07T03:19:17.768Z,0.00
2018-05-07T03:20:17.685Z,0.00
2018-05-07T03:21:17.616Z,0.00
2018-05-07T03:22:17.529Z,4.00
2018-05-07T03:23:17.458Z,0.00
2018-05-07T03:24:17.372Z,0.00
2018-05-07T03:25:17.330Z,0.00
2018-05-07T03:26:17.218Z,4.00
2018-05-07T03:27:17.145Z,0.00
2018-05-07T03:28:17.071Z,4.00
2018-05-07T03:29:16.997Z,0.00
2018-05-07T03:30:16.909Z,4.00
2018-05-07T03:31:16.926Z,4.00
2018-05-07T03:32:16.757Z,4.00
2018-05-07T03:33:16.689Z,4.00
2018-05-07T03:34:16.603Z,4.00
2018-05-07T03:35:16.542Z,4.00
2018-05-07T03:36:16.445Z,8.00
2018-05-07T03:37:16.372Z,8.00
2018-05-07T03:38:16.551Z,8.00
2018-05-07T03:39:16.262Z,8.00
2018-05-07T03:40:16.136Z,8.00
2018-05-07T03:41:16.063Z,12.00
2018-05-07T03:42:15.982Z,12.00
2018-05-07T03:43:15.982Z,12.00
2018-05-07T03:44:15.823Z,12.00
2018-05-07T03:45:15.789Z,16.00
2018-05-07T03:46:15.899Z,16.00
2018-05-07T03:47:15.702Z,16.00
2018-05-07T03:48:15.516Z,16.00
2018-05-07T03:49:15.649Z,16.00
2018-05-07T03:50:15.358Z,20.00
2018-05-07T03:51:15.376Z,24.00
2018-05-07T03:52:15.204Z,24.00
2018-05-07T03:53:15.229Z,28.00
2018-05-07T03:54:15.049Z,24.00
2018-05-07T03:55:15.040Z,28.00
2018-05-07T03:56:14.890Z,32.00
2018-05-07T03:57:14.844Z,32.00
2018-05-07T03:58:14.734Z,32.00
2018-05-07T03:59:14.757Z,36.00
2018-05-07T04:00:14.582Z,40.00
2018-05-07T04:01:14.571Z,40.00
2018-05-07T04:02:14.425Z,44.00
2018-05-07T04:03:14.377Z,44.00
2018-05-07T04:04:14.273Z,44.00
2018-05-07T04:05:14.285Z,48.00
2018-05-07T04:06:14.115Z,48.00
2018-05-07T04:07:15.120Z,52.00
2018-05-07T04:08:13.959Z,56.00
2018-05-07T04:09:13.903Z,60.00
2018-05-07T04:10:13.805Z,56.00
2018-05-07T04:11:13.809Z,60.00
2018-05-07T04:12:13.649Z,64.00
2018-05-07T04:13:13.634Z,64.00
2018-05-07T04:14:13.491Z,64.00
2018-05-07T04:15:13.530Z,68.00
2018-05-07T04:16:13.343Z,68.00
2018-05-07T04:17:13.341Z,72.00
2018-05-07T04:18:13.182Z,76.00
2018-05-07T04:19:13.150Z,76.00
2018-05-07T04:20:13.028Z,80.00
2018-05-07T04:21:12.961Z,80.00
2018-05-07T04:22:12.874Z,80.00
2018-05-07T04:23:12.802Z,84.00
2018-05-07T04:24:12.722Z,88.00
2018-05-07T04:25:12.652Z,88.00
2018-05-07T04:26:12.555Z,92.00
2018-05-07T04:27:12.493Z,88.00
2018-05-07T04:28:12.418Z,92.00
2018-05-07T04:29:12.399Z,96.00
2018-05-07T04:30:12.252Z,96.00
2018-05-07T04:31:12.177Z,96.00
2018-05-07T04:32:12.094Z,100.00
2018-05-07T04:33:12.117Z,100.00
2018-05-07T04:34:11.941Z,108.00
2018-05-07T04:35:11.925Z,108.00
2018-05-07T04:36:11.784Z,108.00
2018-05-07T04:37:11.736Z,112.00
2018-05-07T04:38:11.630Z,116.00
2018-05-07T04:39:11.560Z,116.00
2018-05-07T04:40:11.474Z,120.00
2018-05-07T04:41:11.405Z,120.00
2018-05-07T04:42:11.324Z,124.00
2018-05-07T04:43:11.283Z,124.00
2018-05-07T04:44:11.166Z,128.00
2018-05-07T04:45:11.091Z,128.00
2018-05-07T04:46:11.014Z,128.00
2018-05-07T04:47:10.978Z,132.00
2018-05-07T04:48:10.846Z,136.00
2018-05-07T04:49:10.776Z,136.00
2018-05-07T04:50:10.695Z,136.00
2018-05-07T04:51:10.628Z,136.00
2018-05-07T04:52:10.537Z,140.00
2018-05-07T04:53:10.508Z,144.00
2018-05-07T04:54:10.397Z,148.00
2018-05-07T04:55:10.441Z,148.00
2018-05-07T04:56:10.267Z,152.00
2018-05-07T04:57:10.227Z,152.00
2018-05-07T04:58:10.075Z,156.00
2018-05-07T04:59:10.036Z,156.00
2018-05-07T05:00:09.913Z,160.00
2018-05-07T05:01:09.949Z,164.00
2018-05-07T05:02:09.763Z,164.00
2018-05-07T05:03:09.688Z,164.00
2018-05-07T05:04:10.648Z,168.00
2018-05-07T05:05:09.525Z,164.00
2018-05-07T05:06:09.456Z,168.00
2018-05-07T05:07:09.445Z,168.00
2018-05-07T05:08:09.303Z,172.00
2018-05-07T05:09:09.210Z,176.00
2018-05-07T05:10:09.146Z,180.00
2018-05-07T05:11:09.061Z,180.00
2018-05-07T05:12:09.990Z,180.00
2018-05-07T05:13:08.913Z,184.00
2018-05-07T05:14:08.833Z,184.00
2018-05-07T05:15:08.752Z,188.00
2018-05-07T05:16:08.683Z,188.00
2018-05-07T05:17:08.592Z,192.00
2018-05-07T05:18:08.624Z,192.00
2018-05-07T05:19:08.517Z,196.00
2018-05-07T05:20:08.369Z,196.00
2018-05-07T05:21:08.316Z,200.00
2018-05-07T05:22:08.214Z,204.00
2018-05-07T05:23:08.129Z,204.00
2018-05-07T05:24:08.155Z,204.00
2018-05-07T05:25:07.977Z,204.00
2018-05-07T05:26:07.903Z,212.00
2018-05-07T05:27:07.821Z,216.00
2018-05-07T05:28:07.746Z,220.00
2018-05-07T05:29:07.667Z,220.00
2018-05-07T05:30:07.595Z,224.00
2018-05-07T05:31:07.509Z,232.00
2018-05-07T05:32:07.443Z,236.00
2018-05-07T05:33:07.356Z,240.00
2018-05-07T05:34:07.296Z,244.00
2018-05-07T05:35:07.202Z,252.00
2018-05-07T05:36:07.124Z,264.00
2018-05-07T05:37:07.049Z,268.00
2018-05-07T05:38:07.013Z,272.00
2018-05-07T05:39:06.893Z,276.00
2018-05-07T05:40:06.824Z,284.00
2018-05-07T05:41:06.745Z,284.00
2018-05-07T05:42:06.671Z,284.00
2018-05-07T05:43:06.585Z,284.00
2018-05-07T05:44:06.542Z,288.00
2018-05-07T05:45:06.442Z,284.00
2018-05-07T05:46:06.457Z,288.00
2018-05-07T05:47:06.290Z,284.00
2018-05-07T05:48:06.297Z,288.00
2018-05-07T05:49:06.124Z,288.00
2018-05-07T05:50:06.144Z,288.00
2018-05-07T05:51:05.969Z,288.00
2018-05-07T05:52:05.983Z,292.00
2018-05-07T05:53:05.815Z,292.00
2018-05-07T05:54:05.792Z,292.00
2018-05-07T05:55:05.660Z,292.00
2018-05-07T05:56:05.599Z,292.00
2018-05-07T05:57:05.500Z,292.00
2018-05-07T05:58:05.511Z,292.00
2018-05-07T05:59:05.350Z,296.00
2018-05-07T06:00:05.324Z,292.00
2018-05-07T06:01:05.200Z,296.00
2018-05-07T06:02:05.230Z,296.00
2018-05-07T06:03:05.044Z,300.00
2018-05-07T06:04:05.079Z,300.00
2018-05-07T06:05:04.895Z,304.00
2018-05-07T06:06:04.850Z,304.00
2018-05-07T06:07:04.738Z,304.00
2018-05-07T06:08:04.756Z,308.00
2018-05-07T06:09:04.608Z,308.00
2018-05-07T06:10:05.592Z,312.00
2018-05-07T06:11:04.429Z,312.00
2018-05-07T06:12:04.375Z,312.00
2018-05-07T06:13:04.278Z,316.00
2018-05-07T06:14:04.286Z,320.00
2018-05-07T06:15:04.130Z,320.00
2018-05-07T06:16:04.095Z,324.00
2018-05-07T06:17:03.969Z,328.00
2018-05-07T06:18:04.005Z,328.00
2018-05-07T06:19:03.819Z,332.00
2018-05-07T06:20:03.815Z,312.00
2018-05-07T06:21:03.673Z,340.00
2018-05-07T06:22:03.621Z,348.00
2018-05-07T06:23:03.515Z,348.00
2018-05-07T06:24:03.531Z,348.00
2018-05-07T06:25:03.366Z,352.00
2018-05-07T06:26:03.341Z,356.00
2018-05-07T06:27:03.214Z,360.00
2018-05-07T06:28:03.253Z,360.00
2018-05-07T06:29:03.056Z,364.00
2018-05-07T06:30:03.059Z,368.00
2018-05-07T06:31:02.934Z,368.00
2018-05-07T06:32:02.868Z,376.00
2018-05-07T06:33:02.749Z,380.00
2018-05-07T06:34:02.786Z,380.00
2018-05-07T06:35:02.600Z,384.00
2018-05-07T06:36:02.593Z,388.00
2018-05-07T06:37:02.447Z,392.00
2018-05-07T06:38:02.399Z,400.00
2018-05-07T06:39:02.298Z,400.00
2018-05-07T06:40:02.309Z,408.00
2018-05-07T06:41:02.151Z,408.00
2018-05-07T06:42:02.117Z,416.00
2018-05-07T06:43:01.992Z,420.00
2018-05-07T06:44:02.028Z,428.00
2018-05-07T06:45:01.841Z,432.00
2018-05-07T06:46:01.908Z,440.00
2018-05-07T06:47:01.689Z,444.00
2018-05-07T06:48:01.645Z,452.00
2018-05-07T06:49:01.543Z,460.00
2018-05-07T06:50:01.557Z,468.00
2018-05-07T06:51:01.390Z,476.00
2018-05-07T06:52:01.424Z,484.00
2018-05-07T06:53:01.238Z,496.00
2018-05-07T06:54:01.279Z,504.00
2018-05-07T06:55:01.087Z,516.00
2018-05-07T06:56:01.085Z,520.00
2018-05-07T06:57:00.935Z,536.00
2018-05-07T06:58:00.893Z,548.00
2018-05-07T06:59:00.788Z,564.00
2018-05-07T07:00:00.800Z,584.00
2018-05-07T07:01:00.638Z,600.00
2018-05-07T07:02:00.620Z,620.00
2018-05-07T07:03:00.515Z,648.00
2018-05-07T07:04:00.525Z,672.00
2018-05-07T07:05:00.335Z,708.00
2018-05-07T07:06:00.333Z,728.00
2018-05-07T07:07:00.184Z,744.00
2018-05-07T07:08:00.241Z,768.00
2018-05-07T07:09:00.039Z,792.00
2018-05-07T07:10:00.051Z,820.00
2018-05-07T07:10:59.887Z,844.00
2018-05-07T07:11:59.858Z,876.00
2018-05-07T07:12:59.734Z,920.00
2018-05-07T07:13:59.769Z,960.00
2018-05-07T07:14:59.591Z,988.00
2018-05-07T07:15:59.580Z,1012.00
2018-05-07T07:16:59.438Z,1040.00
2018-05-07T07:17:59.387Z,1060.00
2018-05-07T07:18:59.296Z,1088.00
2018-05-07T07:19:59.298Z,1132.00
2018-05-07T07:20:59.139Z,1184.00
2018-05-07T07:21:59.106Z,1240.00
2018-05-07T07:22:58.989Z,1288.00
2018-05-07T07:23:59.036Z,1344.00
2018-05-07T07:24:58.857Z,1412.00
2018-05-07T07:25:58.827Z,1472.00
2018-05-07T07:26:58.696Z,1540.00
2018-05-07T07:27:58.758Z,1612.00
2018-05-07T07:28:58.550Z,1680.00
2018-05-07T07:29:58.544Z,1752.00
2018-05-07T07:30:58.396Z,1828.00
2018-05-07T07:31:58.355Z,1900.00
2018-05-07T07:32:58.259Z,1960.00
2018-05-07T07:33:58.345Z,2012.00
2018-05-07T07:34:58.123Z,2076.00
2018-05-07T07:35:58.075Z,2128.00
2018-05-07T07:36:57.960Z,2192.00
2018-05-07T07:37:57.986Z,2244.00
2018-05-07T07:38:57.814Z,2284.00
2018-05-07T07:39:57.799Z,2320.00
2018-05-07T07:40:57.670Z,2368.00
2018-05-07T07:41:57.704Z,2404.00
2018-05-07T07:42:57.523Z,2440.00
2018-05-07T07:43:57.511Z,2468.00
2018-05-07T07:44:57.373Z,2496.00
2018-05-07T07:45:57.420Z,2520.00
2018-05-07T07:46:57.312Z,2548.00
2018-05-07T07:47:57.232Z,2564.00
2018-05-07T07:48:57.089Z,2596.00
2018-05-07T07:49:57.044Z,2612.00
2018-05-07T07:50:56.942Z,2640.00
2018-05-07T07:51:56.951Z,2664.00
2018-05-07T07:52:56.797Z,2708.00
2018-05-07T07:53:56.759Z,2724.00
2018-05-07T07:54:56.661Z,2736.00
2018-05-07T07:55:56.671Z,2764.00
2018-05-07T07:56:56.508Z,2796.00
2018-05-07T07:57:56.478Z,2816.00
2018-05-07T07:58:56.367Z,2840.00
2018-05-07T07:59:56.390Z,2860.00
2018-05-07T08:00:56.220Z,2864.00
2018-05-07T08:01:56.197Z,2880.00
2018-05-07T08:02:56.083Z,2908.00
2018-05-07T08:03:56.108Z,2928.00
2018-05-07T08:04:55.941Z,2936.00
2018-05-07T08:05:55.921Z,2936.00
2018-05-07T08:06:55.796Z,2968.00
2018-05-07T08:07:55.827Z,2988.00
2018-05-07T08:08:55.652Z,2996.00
2018-05-07T08:09:55.639Z,2988.00
2018-05-07T08:10:55.512Z,3000.00
2018-05-07T08:11:55.551Z,3052.00
2018-05-07T08:12:55.377Z,3040.00
2018-05-07T08:13:55.360Z,3052.00
2018-05-07T08:14:55.226Z,3036.00
2018-05-07T08:15:55.268Z,3044.00
2018-05-07T08:16:55.099Z,3064.00
2018-05-07T08:17:55.077Z,3040.00
2018-05-07T08:18:54.949Z,3052.00
2018-05-07T08:19:54.982Z,3064.00
2018-05-07T08:20:54.808Z,3048.00
2018-05-07T08:21:54.794Z,3076.00
2018-05-07T08:22:54.669Z,3052.00
2018-05-07T08:23:54.706Z,3088.00
2018-05-07T08:24:54.525Z,3128.00
2018-05-07T08:25:54.517Z,3100.00
2018-05-07T08:26:54.385Z,3100.00
2018-05-07T08:27:54.424Z,3076.00
2018-05-07T08:28:54.246Z,3104.00
2018-05-07T08:29:54.249Z,3100.00
2018-05-07T08:30:54.107Z,3120.00
2018-05-07T08:31:54.147Z,3156.00
2018-05-07T08:32:53.966Z,3152.00
2018-05-07T08:33:53.954Z,3132.00
2018-05-07T08:34:53.827Z,3152.00
2018-05-07T08:35:53.862Z,3124.00
2018-05-07T08:36:53.685Z,3124.00
2018-05-07T08:37:53.672Z,3168.00
2018-05-07T08:38:53.552Z,3196.00
2018-05-07T08:39:53.590Z,3160.00
2018-05-07T08:40:53.410Z,3180.00
2018-05-07T08:41:53.396Z,3148.00
2018-05-07T08:42:53.272Z,3160.00
2018-05-07T08:43:53.305Z,3200.00
2018-05-07T08:44:53.129Z,3196.00
2018-05-07T08:45:53.117Z,3172.00
2018-05-07T08:46:52.997Z,3140.00
2018-05-07T08:47:53.021Z,3208.00
2018-05-07T08:48:52.852Z,3196.00
2018-05-07T08:49:52.836Z,3196.00
2018-05-07T08:50:52.793Z,3208.00
2018-05-07T08:51:52.751Z,3200.00
2018-05-07T08:52:52.594Z,3188.00
2018-05-07T08:53:52.556Z,3180.00
2018-05-07T08:54:52.441Z,3180.00
2018-05-07T08:55:52.464Z,3168.00
2018-05-07T08:56:52.302Z,3168.00
2018-05-07T08:57:52.275Z,3184.00
2018-05-07T08:58:52.161Z,3172.00
2018-05-07T08:59:52.182Z,3196.00
2018-05-07T09:00:52.025Z,3180.00
2018-05-07T09:01:52.001Z,3160.00
2018-05-07T09:02:51.892Z,3144.00
2018-05-07T09:03:51.901Z,3168.00
2018-05-07T09:04:51.748Z,3152.00
2018-05-07T09:05:51.710Z,3152.00
2018-05-07T09:06:51.610Z,3136.00
2018-05-07T09:07:51.620Z,3132.00
2018-05-07T09:08:51.470Z,3152.00
2018-05-07T09:09:51.429Z,3136.00
2018-05-07T09:10:51.337Z,3136.00
2018-05-07T09:11:51.343Z,3108.00
2018-05-07T09:12:51.200Z,3096.00
2018-05-07T09:13:51.160Z,3092.00
2018-05-07T09:14:51.062Z,3096.00
2018-05-07T09:15:51.069Z,3084.00
2018-05-07T09:16:50.923Z,3072.00
2018-05-07T09:17:50.970Z,3072.00
2018-05-07T09:18:50.783Z,3080.00
2018-05-07T09:19:50.780Z,3052.00
2018-05-07T09:20:50.646Z,3072.00
2018-05-07T09:21:50.688Z,3052.00
2018-05-07T09:22:50.509Z,3052.00
2018-05-07T09:23:50.499Z,3040.00
2018-05-07T09:24:50.458Z,3048.00
2018-05-07T09:25:50.410Z,3060.00
2018-05-07T09:26:50.245Z,3060.00
2018-05-07T09:27:50.217Z,3060.00
2018-05-07T09:28:50.104Z,3040.00
2018-05-07T09:29:50.130Z,3020.00
2018-05-07T09:30:49.965Z,3016.00
2018-05-07T09:31:49.942Z,3028.00
2018-05-07T09:32:49.824Z,3036.00
2018-05-07T09:33:49.874Z,3012.00
2018-05-07T09:34:49.691Z,3016.00
2018-05-07T09:35:49.657Z,3004.00
2018-05-07T09:36:49.559Z,2992.00
2018-05-07T09:37:49.574Z,2984.00
2018-05-07T09:38:49.426Z,2976.00
2018-05-07T09:39:49.382Z,2980.00
2018-05-07T09:40:49.283Z,2944.00
2018-05-07T09:41:49.287Z,2932.00
2018-05-07T09:42:49.153Z,2932.00
2018-05-07T09:43:49.096Z,2936.00
2018-05-07T09:44:49.012Z,2920.00
2018-05-07T09:45:49.007Z,2916.00
2018-05-07T09:46:48.890Z,2908.00
2018-05-07T09:47:48.929Z,2892.00
2018-05-07T09:48:48.741Z,2896.00
2018-05-07T09:49:48.728Z,2880.00
2018-05-07T09:50:48.604Z,2864.00
2018-05-07T09:51:48.646Z,2876.00
2018-05-07T09:52:48.467Z,2848.00
2018-05-07T09:53:48.448Z,2848.00
2018-05-07T09:54:48.335Z,2812.00
2018-05-07T09:55:48.359Z,2824.00
2018-05-07T09:56:48.275Z,2824.00
2018-05-07T09:57:48.163Z,2812.00
2018-05-07T09:58:48.066Z,2804.00
2018-05-07T09:59:48.076Z,2784.00
2018-05-07T10:00:47.927Z,2788.00
2018-05-07T10:01:47.891Z,2780.00
2018-05-07T10:02:47.796Z,2764.00
2018-05-07T10:03:47.795Z,2760.00
2018-05-07T10:04:47.657Z,2768.00
2018-05-07T10:05:47.707Z,2740.00
2018-05-07T10:06:47.525Z,2720.00
2018-05-07T10:07:47.514Z,2736.00
2018-05-07T10:08:47.388Z,2728.00
2018-05-07T10:09:47.424Z,2720.00
2018-05-07T10:10:47.256Z,2704.00
2018-05-07T10:11:47.232Z,2312.00
2018-05-07T10:12:47.119Z,2644.00
2018-05-07T10:13:47.145Z,2620.00
2018-05-07T10:14:46.987Z,2648.00
2018-05-07T10:15:46.960Z,2624.00
2018-05-07T10:16:46.860Z,2620.00
2018-05-07T10:17:46.863Z,2604.00
2018-05-07T10:18:46.713Z,2612.00
2018-05-07T10:19:46.670Z,2604.00
2018-05-07T10:20:46.581Z,2600.00
2018-05-07T10:21:46.588Z,2572.00
2018-05-07T10:22:46.447Z,2596.00
2018-05-07T10:23:46.494Z,2600.00
2018-05-07T10:24:46.315Z,2596.00
2018-05-07T10:25:46.305Z,2580.00
2018-05-07T10:26:46.176Z,2560.00
2018-05-07T10:27:46.215Z,2552.00
2018-05-07T10:28:46.049Z,2556.00
2018-05-07T10:29:46.038Z,2548.00
2018-05-07T10:30:45.914Z,2544.00
2018-05-07T10:31:45.936Z,2532.00
2018-05-07T10:32:45.778Z,2528.00
2018-05-07T10:33:45.744Z,2520.00
2018-05-07T10:34:45.646Z,2520.00
2018-05-07T10:35:45.656Z,2516.00
2018-05-07T10:36:45.516Z,2508.00
2018-05-07T10:37:45.463Z,2496.00
2018-05-07T10:38:45.384Z,2496.00
2018-05-07T10:39:45.375Z,2496.00
2018-05-07T10:40:45.248Z,2492.00
2018-05-07T10:41:45.285Z,2484.00
2018-05-07T10:42:45.181Z,2484.00
2018-05-07T10:43:45.096Z,2476.00
2018-05-07T10:44:44.979Z,2464.00
2018-05-07T10:45:45.014Z,2456.00
2018-05-07T10:46:44.846Z,2444.00
2018-05-07T10:47:44.814Z,2432.00
2018-05-07T10:48:44.712Z,2428.00
2018-05-07T10:49:44.726Z,2428.00
2018-05-07T10:50:44.579Z,2416.00
2018-05-07T10:51:44.533Z,2416.00
2018-05-07T10:52:44.451Z,2404.00
2018-05-07T10:53:44.444Z,2392.00
2018-05-07T10:54:44.316Z,2384.00
2018-05-07T10:55:44.354Z,2392.00
2018-05-07T10:56:44.181Z,2380.00
2018-05-07T10:57:44.165Z,2364.00
2018-05-07T10:58:44.054Z,2368.00
2018-05-07T10:59:44.076Z,2368.00
2018-05-07T11:00:43.920Z,2356.00
2018-05-07T11:01:43.962Z,2356.00
2018-05-07T11:02:43.782Z,2344.00
2018-05-07T11:03:43.794Z,2324.00
2018-05-07T11:04:43.665Z,2312.00
2018-05-07T11:05:43.710Z,2312.00
2018-05-07T11:06:43.534Z,2312.00
2018-05-07T11:07:43.517Z,2300.00
2018-05-07T11:08:43.397Z,2288.00
2018-05-07T11:09:44.351Z,2284.00
2018-05-07T11:10:43.263Z,2276.00
2018-05-07T11:11:49.285Z,2268.00
2018-05-07T11:12:43.147Z,2256.00
2018-05-07T11:13:43.153Z,2252.00
2018-05-07T11:14:43.005Z,2252.00
2018-05-07T11:15:42.959Z,2236.00
2018-05-07T11:16:42.870Z,2224.00
2018-05-07T11:17:42.866Z,2216.00
2018-05-07T11:18:42.739Z,2224.00
2018-05-07T11:19:42.828Z,2228.00
2018-05-07T11:20:42.608Z,2236.00
2018-05-07T11:21:42.588Z,2232.00
2018-05-07T11:22:42.487Z,2224.00
2018-05-07T11:23:42.496Z,2212.00
2018-05-07T11:24:42.349Z,2204.00
2018-05-07T11:25:42.309Z,2196.00
2018-05-07T11:26:42.220Z,2188.00
2018-05-07T11:27:42.217Z,2192.00
2018-05-07T11:28:42.085Z,2184.00
2018-05-07T11:29:42.129Z,2172.00
2018-05-07T11:30:41.960Z,2160.00
2018-05-07T11:31:41.938Z,2156.00
2018-05-07T11:32:41.823Z,2156.00
2018-05-07T11:33:41.845Z,2148.00
2018-05-07T11:34:41.699Z,2132.00
2018-05-07T11:35:41.654Z,2124.00
2018-05-07T11:36:41.569Z,2132.00
2018-05-07T11:37:46.279Z,2128.00
2018-05-07T11:38:41.436Z,2132.00
2018-05-07T11:39:41.480Z,2144.00
2018-05-07T11:40:41.315Z,2140.00
2018-05-07T11:41:41.285Z,2140.00
2018-05-07T11:42:41.183Z,2132.00
2018-05-07T11:43:41.198Z,2128.00
2018-05-07T11:44:41.054Z,2136.00
2018-05-07T11:45:41.004Z,2136.00
2018-05-07T11:46:40.922Z,2136.00
2018-05-07T11:47:40.963Z,2132.00
2018-05-07T11:48:40.790Z,2124.00
2018-05-07T11:49:40.741Z,2124.00
2018-05-07T11:50:40.664Z,2128.00
2018-05-07T11:51:40.622Z,2112.00
2018-05-07T11:52:40.535Z,2124.00
2018-05-07T11:53:40.478Z,2124.00
2018-05-07T11:54:40.405Z,2124.00
2018-05-07T11:55:40.458Z,2120.00
2018-05-07T11:56:40.279Z,2112.00
2018-05-07T11:57:40.267Z,2080.00
2018-05-07T11:58:40.149Z,2124.00
2018-05-07T11:59:40.176Z,2124.00
2018-05-07T12:00:40.020Z,2024.00
2018-05-07T12:01:39.984Z,2060.00
2018-05-07T12:02:39.912Z,2120.00
2018-05-07T12:03:39.898Z,2092.00
2018-05-07T12:04:39.764Z,2140.00
2018-05-07T12:05:39.807Z,2124.00
2018-05-07T12:06:39.633Z,2128.00
2018-05-07T12:07:39.615Z,2128.00
2018-05-07T12:08:39.505Z,2128.00
2018-05-07T12:09:39.527Z,2132.00
2018-05-07T12:10:39.377Z,2136.00
2018-05-07T12:11:40.358Z,2140.00
2018-05-07T12:12:39.249Z,2128.00
2018-05-07T12:13:39.246Z,2140.00
2018-05-07T12:14:39.119Z,2128.00
2018-05-07T12:15:39.209Z,2136.00
2018-05-07T12:16:38.991Z,2140.00
2018-05-07T12:17:38.966Z,2136.00
2018-05-07T12:18:38.861Z,2140.00
2018-05-07T12:19:38.880Z,2140.00
2018-05-07T12:20:38.740Z,2140.00
2018-05-07T12:21:38.787Z,2156.00
2018-05-07T12:22:38.607Z,2152.00
2018-05-07T12:23:38.605Z,2152.00
2018-05-07T12:24:38.491Z,2152.00
2018-05-07T12:25:38.425Z,2144.00
2018-05-07T12:26:38.350Z,2144.00
2018-05-07T12:27:38.317Z,2144.00
2018-05-07T12:28:38.227Z,2144.00
2018-05-07T12:29:38.230Z,2148.00
2018-05-07T12:30:38.091Z,2140.00
2018-05-07T12:31:38.177Z,2148.00
2018-05-07T12:32:37.966Z,2148.00